Time;durP1;ratioP1;P1;durP2;ratioP2;P2;SDS_P1;SDS_P2;PMS_P1;PMS_P2;Temp;Humidity;BMP_temperature;BMP_pressure;BME280_temperature;BME280_humidity;BME280_pressure;Samples;Min_cycle;Max_cycle;Signal;HPM_P1;HPM_P2
2022/12/30 00:02:18;;;;;;;6.17;4.50;;;9.50;99.90;;;;;;5066470;28;20194;-77
2022/12/30 00:04:45;;;;;;;6.13;4.30;;;9.60;99.90;;;;;;5066182;28;20190;-77
2022/12/30 00:07:11;;;;;;;4.60;4.03;;;9.60;99.90;;;;;;5063864;28;20674;-76
2022/12/30 00:09:37;;;;;;;8.03;4.30;;;9.50;99.90;;;;;;5047284;28;20225;-77
2022/12/30 00:33:06;;;;;;;6.07;3.83;;;9.50;99.90;;;;;;5064668;28;20698;-77
2022/12/30 00:34:34;;;;;;;5.47;4.13;;;9.40;99.90;;;;;;5063874;28;20191;-77
2022/12/30 00:37:00;;;;;;;5.90;4.43;;;9.40;99.90;;;;;;5064228;28;20237;-77
2022/12/30 00:39:27;;;;;;;5.77;4.00;;;9.40;99.90;;;;;;5063437;28;20225;-77
2022/12/30 00:44:38;;;;;;;3.63;3.20;;;9.30;99.90;;;;;;5080592;28;20202;-77
2022/12/30 00:47:09;;;;;;;5.97;3.20;;;9.30;99.90;;;;;;5066947;28;20288;-77
2022/12/30 00:57:53;;;;;;;4.27;3.70;;;9.20;99.90;;;;;;5067893;28;20190;-77
2022/12/30 01:00:20;;;;;;;4.13;3.73;;;9.30;99.90;;;;;;5049736;28;20202;-76
2022/12/30 01:02:46;;;;;;;4.87;3.83;;;9.20;99.90;;;;;;5051169;28;20185;-76
2022/12/30 01:05:12;;;;;;;6.47;4.00;;;9.20;99.90;;;;;;5066610;28;20622;-75
2022/12/30 01:07:39;;;;;;;7.67;3.93;;;9.10;99.90;;;;;;5069149;28;20273;-76
2022/12/30 01:10:06;;;;;;;7.60;4.17;;;9.10;99.90;;;;;;5079800;28;20228;-75
2022/12/30 01:12:32;;;;;;;4.93;4.10;;;9.10;99.90;;;;;;5070373;28;20214;-76
2022/12/30 01:14:59;;;;;;;5.20;3.90;;;9.10;99.90;;;;;;5070174;28;20195;-75
2022/12/30 01:17:33;;;;;;;4.97;4.03;;;9.10;99.90;;;;;;5039857;28;20187;-75
2022/12/30 01:19:59;;;;;;;6.27;4.23;;;9.00;99.90;;;;;;5062667;28;20184;-75
2022/12/30 01:22:26;;;;;;;6.57;3.90;;;9.10;99.90;;;;;;5075861;28;20244;-76
2022/12/30 01:24:53;;;;;;;6.10;4.00;;;9.10;99.90;;;;;;5054961;28;20190;-76
2022/12/30 01:27:19;;;;;;;5.80;3.97;;;9.10;99.90;;;;;;5069709;28;20253;-75
2022/12/30 01:29:46;;;;;;;6.50;4.13;;;9.10;99.90;;;;;;5083579;28;20199;-75
2022/12/30 01:32:19;;;;;;;5.33;4.07;;;9.10;99.90;;;;;;5072513;28;20193;-75
2022/12/30 01:34:47;;;;;;;6.83;4.20;;;9.10;99.90;;;;;;5076890;28;20194;-75
2022/12/30 01:37:14;;;;;;;7.27;4.17;;;9.10;99.90;;;;;;5066858;28;20211;-75
2022/12/30 01:39:41;;;;;;;6.00;4.03;;;9.10;99.90;;;;;;5089554;28;20198;-75
2022/12/30 01:42:29;;;;;;;5.47;3.40;;;9.10;99.90;;;;;;5051308;28;20236;-75
2022/12/30 01:45:01;;;;;;;4.60;3.47;;;9.00;99.90;;;;;;5054703;28;20179;-75
2022/12/30 01:47:43;;;;;;;6.03;3.40;;;9.00;99.90;;;;;;5085769;28;20278;-75
2022/12/30 01:50:12;;;;;;;5.20;3.37;;;9.00;99.90;;;;;;5052152;28;20187;-75
2022/12/30 01:52:53;;;;;;;5.30;3.37;;;9.00;99.90;;;;;;5059643;28;20190;-75
2022/12/30 01:55:33;;;;;;;5.77;3.73;;;9.00;99.90;;;;;;5061704;28;20574;-75
2022/12/30 01:58:06;;;;;;;4.33;3.37;;;9.10;99.90;;;;;;5091043;28;20194;-76
2022/12/30 02:00:32;;;;;;;4.47;3.40;;;9.10;99.90;;;;;;5057383;28;20180;-76
2022/12/30 02:03:00;;;;;;;5.87;3.50;;;9.10;99.90;;;;;;5060680;28;20655;-75
2022/12/30 02:05:31;;;;;;;3.57;2.87;;;9.10;99.90;;;;;;5055162;28;20200;-75
2022/12/30 02:08:14;;;;;;;4.70;3.43;;;9.10;99.90;;;;;;5068671;28;20190;-75
2022/12/30 02:10:47;;;;;;;6.77;3.37;;;9.10;99.90;;;;;;5051387;28;20190;-76
2022/12/30 02:13:16;;;;;;;4.60;3.10;;;9.10;99.90;;;;;;5057018;28;20190;-75
2022/12/30 02:16:15;;;;;;;3.70;3.00;;;9.00;99.90;;;;;;5068092;28;20218;-75
2022/12/30 02:19:17;;;;;;;3.40;3.10;;;9.00;99.90;;;;;;5074049;28;20756;-75
2022/12/30 02:22:14;;;;;;;4.73;3.03;;;9.00;99.90;;;;;;5067105;28;20220;-75
2022/12/30 02:25:38;;;;;;;3.23;2.73;;;9.10;99.90;;;;;;5067156;28;20195;-75
2022/12/30 02:28:27;;;;;;;3.30;2.80;;;9.10;99.90;;;;;;5023939;28;20192;-75
2022/12/30 02:31:20;;;;;;;3.43;2.60;;;9.10;99.90;;;;;;5066501;28;20333;-75
2022/12/30 02:34:29;;;;;;;4.63;2.73;;;9.10;99.90;;;;;;5067864;28;20866;-75
2022/12/30 02:37:21;;;;;;;2.67;2.37;;;9.20;99.90;;;;;;5064375;28;20219;-75
2022/12/30 02:40:19;;;;;;;3.67;2.30;;;9.10;99.90;;;;;;5075622;28;20571;-75
2022/12/30 02:46:05;;;;;;;2.87;2.53;;;9.10;99.90;;;;;;5060842;28;20651;-76
2022/12/30 02:48:39;;;;;;;3.47;2.20;;;9.10;99.90;;;;;;5066110;28;20923;-77
2022/12/30 02:53:51;;;;;;;3.90;2.50;;;9.10;99.90;;;;;;5069154;28;20206;-77
2022/12/30 02:56:18;;;;;;;3.67;2.23;;;9.10;99.90;;;;;;5066955;28;20322;-77
2022/12/30 03:03:56;;;;;;;3.13;2.43;;;9.10;99.90;;;;;;5078140;28;20277;-77
2022/12/30 03:06:00;;;;;;;2.73;2.43;;;9.00;99.90;;;;;;5055945;28;20188;-78
2022/12/30 03:08:57;;;;;;;3.60;2.30;;;8.90;99.90;;;;;;5065430;28;20628;-76
2022/12/30 03:11:28;;;;;;;3.30;2.50;;;8.90;99.90;;;;;;5065604;28;20289;-77
2022/12/30 03:14:08;;;;;;;3.13;2.30;;;8.90;99.90;;;;;;5071714;28;20651;-77
2022/12/30 03:16:45;;;;;;;3.93;2.20;;;8.90;99.90;;;;;;5057251;28;20793;-76
2022/12/30 03:19:27;;;;;;;2.30;2.10;;;8.90;99.90;;;;;;5058197;28;20714;-76
2022/12/30 03:21:56;;;;;;;3.23;2.40;;;8.90;99.90;;;;;;5072755;28;20221;-76
2022/12/30 03:27:22;;;;;;;2.80;2.30;;;8.80;99.90;;;;;;5066144;28;20350;-76
2022/12/30 03:29:57;;;;;;;2.87;2.53;;;8.80;99.90;;;;;;5061970;28;20196;-76
2022/12/30 03:32:24;;;;;;;7.30;3.17;;;8.80;99.90;;;;;;5058516;28;20673;-76
2022/12/30 03:34:51;;;;;;;3.10;2.70;;;8.80;99.90;;;;;;5068440;28;20667;-76
2022/12/30 03:37:38;;;;;;;3.50;2.83;;;8.80;99.90;;;;;;5055746;28;20631;-77
2022/12/30 03:40:12;;;;;;;4.00;2.97;;;8.80;99.90;;;;;;5066451;28;20672;-76
2022/12/30 03:42:38;;;;;;;3.13;2.60;;;8.80;99.90;;;;;;5074883;28;20179;-76
2022/12/30 03:45:07;;;;;;;3.23;2.60;;;8.80;99.90;;;;;;5076084;28;20210;-77
2022/12/30 03:47:34;;;;;;;4.50;3.00;;;8.80;99.90;;;;;;5068138;28;20643;-77
2022/12/30 03:50:00;;;;;;;3.20;2.90;;;8.80;99.90;;;;;;5066462;28;20194;-77
2022/12/30 03:52:27;;;;;;;3.37;2.50;;;8.90;99.90;;;;;;5072995;28;20219;-76
2022/12/30 03:54:53;;;;;;;5.73;2.60;;;8.90;99.90;;;;;;5069873;28;20213;-77
2022/12/30 03:57:20;;;;;;;3.60;2.80;;;8.90;99.90;;;;;;5066678;28;20241;-76
2022/12/30 03:59:47;;;;;;;3.40;2.93;;;8.90;99.90;;;;;;5069013;28;20197;-77
2022/12/30 04:02:13;;;;;;;5.67;2.70;;;8.90;99.90;;;;;;5087038;28;20559;-77
2022/12/30 04:04:39;;;;;;;4.23;2.70;;;8.90;99.90;;;;;;5059884;28;20184;-77
2022/12/30 04:07:06;;;;;;;3.57;2.90;;;8.90;99.90;;;;;;5072184;28;20213;-76
2022/12/30 04:09:32;;;;;;;3.80;2.83;;;8.90;99.90;;;;;;5059369;28;20279;-77
2022/12/30 04:11:58;;;;;;;4.10;3.00;;;8.80;99.90;;;;;;5062043;28;20194;-76
2022/12/30 04:14:26;;;;;;;4.67;3.20;;;8.80;99.90;;;;;;5090061;28;20269;-76
2022/12/30 04:16:52;;;;;;;4.53;3.10;;;8.80;99.90;;;;;;5069983;28;20309;-76
2022/12/30 04:19:18;;;;;;;2.97;2.67;;;8.80;99.90;;;;;;5067268;28;20230;-76
2022/12/30 04:21:45;;;;;;;3.40;2.97;;;8.80;99.90;;;;;;5056374;28;20734;-76
2022/12/30 04:24:11;;;;;;;6.07;2.97;;;8.80;99.90;;;;;;5070035;28;20199;-76
2022/12/30 04:26:37;;;;;;;3.00;2.60;;;8.80;99.90;;;;;;5065568;28;20197;-76
2022/12/30 04:29:04;;;;;;;3.33;2.73;;;8.80;99.90;;;;;;5046292;28;20188;-76
2022/12/30 04:31:30;;;;;;;3.90;3.00;;;8.80;99.90;;;;;;5066445;28;20608;-76
2022/12/30 04:33:57;;;;;;;6.70;4.10;;;8.80;99.90;;;;;;5066222;28;20902;-77
2022/12/30 04:36:23;;;;;;;6.33;3.23;;;8.80;99.90;;;;;;5067890;28;20301;-77
2022/12/30 04:38:49;;;;;;;3.27;2.83;;;8.80;99.90;;;;;;5074184;28;20195;-77
2022/12/30 04:41:19;;;;;;;6.20;2.73;;;8.80;99.90;;;;;;5068644;28;20587;-76
2022/12/30 04:43:47;;;;;;;4.03;2.90;;;8.80;99.90;;;;;;5072591;28;20551;-76
2022/12/30 04:46:15;;;;;;;3.73;3.13;;;8.80;99.90;;;;;;5053378;28;20187;-76
2022/12/30 04:48:41;;;;;;;3.77;2.80;;;8.80;99.90;;;;;;5071175;28;20279;-77
2022/12/30 04:51:08;;;;;;;3.53;3.20;;;8.80;99.90;;;;;;5071742;28;20590;-77
2022/12/30 04:53:34;;;;;;;5.67;3.10;;;8.80;99.90;;;;;;5078489;28;20245;-76
2022/12/30 04:56:01;;;;;;;4.93;3.30;;;8.80;99.90;;;;;;5038922;28;20213;-77
2022/12/30 04:58:27;;;;;;;3.23;2.60;;;8.80;99.90;;;;;;5071039;28;20270;-76
2022/12/30 05:00:54;;;;;;;3.03;2.73;;;8.80;99.90;;;;;;5066485;28;20190;-76
2022/12/30 05:03:21;;;;;;;4.30;3.17;;;8.80;99.90;;;;;;5086765;28;20709;-77
2022/12/30 05:05:48;;;;;;;3.73;3.20;;;8.90;99.90;;;;;;5073108;28;20596;-77
2022/12/30 05:08:14;;;;;;;3.40;3.10;;;8.90;99.90;;;;;;5062783;28;20225;-77
2022/12/30 05:10:41;;;;;;;4.07;3.30;;;9.00;99.90;;;;;;5070390;28;20197;-77
2022/12/30 05:13:08;;;;;;;5.27;3.17;;;9.00;99.90;;;;;;5058964;28;20222;-76
2022/12/30 05:15:34;;;;;;;4.47;3.13;;;9.00;99.90;;;;;;5032813;28;20211;-77
2022/12/30 05:18:01;;;;;;;5.30;3.23;;;9.00;99.90;;;;;;5072101;28;20195;-77
2022/12/30 05:20:27;;;;;;;3.97;2.90;;;9.00;99.90;;;;;;5073880;28;20201;-76
2022/12/30 05:22:54;;;;;;;3.90;3.33;;;9.00;99.90;;;;;;5060610;28;20261;-77
2022/12/30 05:28:05;;;;;;;4.07;2.73;;;9.00;99.90;;;;;;5068788;28;20186;-77
2022/12/30 05:30:32;;;;;;;3.80;3.40;;;9.10;99.90;;;;;;5076799;28;20217;-77
2022/12/30 05:32:58;;;;;;;3.97;3.50;;;9.10;99.90;;;;;;5072530;28;20201;-77
2022/12/30 05:35:25;;;;;;;4.10;3.50;;;9.10;99.90;;;;;;5068889;28;20190;-76
2022/12/30 05:37:51;;;;;;;5.17;3.60;;;9.10;99.90;;;;;;5055989;28;20182;-77
2022/12/30 05:40:18;;;;;;;3.63;3.33;;;9.10;99.90;;;;;;5067915;28;20301;-77
2022/12/30 05:42:45;;;;;;;3.87;3.27;;;9.10;99.90;;;;;;5070317;28;20222;-77
2022/12/30 05:45:11;;;;;;;7.33;3.80;;;9.10;99.90;;;;;;5085072;28;20218;-77
2022/12/30 05:47:38;;;;;;;6.50;3.30;;;9.10;99.90;;;;;;5065082;28;20276;-77
2022/12/30 05:50:05;;;;;;;3.70;3.20;;;9.10;99.90;;;;;;5051795;28;20551;-76
2022/12/30 05:52:32;;;;;;;3.77;3.20;;;9.10;99.90;;;;;;5085491;28;20183;-77
2022/12/30 05:54:58;;;;;;;3.80;3.50;;;9.10;99.90;;;;;;5068099;28;20202;-76
2022/12/30 05:57:25;;;;;;;3.80;3.07;;;9.10;99.90;;;;;;5069568;28;20210;-76
2022/12/30 05:59:51;;;;;;;4.90;3.47;;;9.10;99.90;;;;;;5063870;28;20279;-77
2022/12/30 06:02:18;;;;;;;3.63;3.33;;;9.10;99.90;;;;;;5065500;28;20191;-77
2022/12/30 06:04:45;;;;;;;4.20;3.20;;;9.10;99.90;;;;;;5064715;28;20175;-77
2022/12/30 06:07:11;;;;;;;4.27;3.33;;;9.10;99.90;;;;;;5068605;28;20311;-77
2022/12/30 06:09:38;;;;;;;5.97;3.53;;;9.20;99.90;;;;;;5051722;28;20191;-77
2022/12/30 06:12:04;;;;;;;4.77;3.40;;;9.20;99.90;;;;;;5054802;28;20191;-76
2022/12/30 06:14:30;;;;;;;3.77;3.30;;;9.30;99.90;;;;;;5056275;28;20652;-77
2022/12/30 06:16:57;;;;;;;4.00;3.30;;;9.30;99.90;;;;;;5074634;28;20299;-77
2022/12/30 06:19:23;;;;;;;4.07;3.60;;;9.30;99.90;;;;;;5076244;28;20178;-77
2022/12/30 06:21:50;;;;;;;3.67;3.23;;;9.30;99.90;;;;;;5065276;28;20182;-77
2022/12/30 06:24:16;;;;;;;4.47;3.60;;;9.40;99.90;;;;;;5068183;28;20582;-77
2022/12/30 06:26:43;;;;;;;4.33;3.30;;;9.40;99.90;;;;;;5060747;28;20197;-77
2022/12/30 06:29:09;;;;;;;6.13;3.20;;;9.50;99.90;;;;;;5072008;28;21819;-77
2022/12/30 06:31:35;;;;;;;5.40;3.60;;;9.60;99.90;;;;;;5075901;28;20730;-77
2022/12/30 06:34:01;;;;;;;4.30;3.33;;;9.60;99.90;;;;;;5065776;28;20212;-77
2022/12/30 06:36:28;;;;;;;4.33;3.27;;;9.70;99.90;;;;;;5062852;28;20325;-77
2022/12/30 06:38:54;;;;;;;3.77;3.37;;;9.80;99.90;;;;;;5074090;28;20194;-77
2022/12/30 06:41:20;;;;;;;4.10;3.27;;;9.80;99.90;;;;;;5064275;28;20185;-77
2022/12/30 06:43:47;;;;;;;3.40;3.10;;;9.90;99.90;;;;;;5072538;28;20195;-76
2022/12/30 06:46:13;;;;;;;4.10;3.40;;;9.90;99.90;;;;;;5069813;28;20191;-77
2022/12/30 06:48:39;;;;;;;3.87;3.33;;;10.00;99.90;;;;;;5074334;28;20638;-77
2022/12/30 06:51:06;;;;;;;6.30;3.53;;;10.00;99.90;;;;;;5058489;28;20191;-77
2022/12/30 06:53:33;;;;;;;4.90;3.60;;;10.10;99.90;;;;;;5088563;28;20665;-77
2022/12/30 06:56:00;;;;;;;4.40;3.60;;;10.10;99.90;;;;;;5067613;28;20252;-77
2022/12/30 06:58:27;;;;;;;4.23;3.43;;;10.10;99.90;;;;;;5068700;28;20924;-77
2022/12/30 07:00:54;;;;;;;4.63;3.50;;;10.20;99.90;;;;;;5067349;28;20193;-77
2022/12/30 07:03:20;;;;;;;3.70;3.30;;;10.20;99.90;;;;;;5068727;28;20187;-77
2022/12/30 07:05:47;;;;;;;4.00;3.33;;;10.30;99.90;;;;;;5050756;28;20191;-78
2022/12/30 07:08:13;;;;;;;5.80;3.70;;;10.30;99.90;;;;;;5066998;28;20205;-77
2022/12/30 07:10:40;;;;;;;4.73;3.73;;;10.40;99.90;;;;;;5051817;28;20194;-77
2022/12/30 07:13:06;;;;;;;4.20;3.80;;;10.50;99.90;;;;;;5087072;28;20195;-77
2022/12/30 07:15:33;;;;;;;4.07;3.43;;;10.50;99.90;;;;;;5087504;28;20596;-77
2022/12/30 07:17:59;;;;;;;3.93;3.50;;;10.50;99.90;;;;;;5054578;28;20223;-77
2022/12/30 07:20:25;;;;;;;6.73;3.60;;;10.50;99.90;;;;;;5084055;28;20182;-77
2022/12/30 07:22:52;;;;;;;5.87;3.57;;;10.50;99.90;;;;;;5052631;28;20233;-77
2022/12/30 07:25:18;;;;;;;3.80;3.40;;;10.60;99.90;;;;;;5049704;28;20655;-77
2022/12/30 07:27:44;;;;;;;4.67;3.77;;;10.60;99.90;;;;;;5064229;28;20257;-77
2022/12/30 07:30:11;;;;;;;4.93;3.60;;;10.70;99.90;;;;;;5057950;28;20695;-77
2022/12/30 07:32:39;;;;;;;3.97;3.57;;;10.70;99.90;;;;;;5064367;28;20571;-77
2022/12/30 07:35:07;;;;;;;5.40;3.80;;;10.70;99.90;;;;;;5064115;28;20198;-77
2022/12/30 07:37:37;;;;;;;5.07;3.90;;;10.80;99.90;;;;;;5058419;28;20214;-77
2022/12/30 07:40:05;;;;;;;4.53;3.63;;;10.90;99.90;;;;;;5070932;28;20276;-77
2022/12/30 07:42:32;;;;;;;5.80;3.30;;;11.10;99.90;;;;;;5087502;28;20686;-77
2022/12/30 07:44:59;;;;;;;4.20;3.43;;;11.00;99.90;;;;;;5078420;28;20193;-77
2022/12/30 07:47:25;;;;;;;3.60;3.13;;;11.00;99.90;;;;;;5047638;28;20201;-77
2022/12/30 07:49:51;;;;;;;5.03;3.70;;;11.10;99.90;;;;;;5075568;28;21040;-77
2022/12/30 07:52:17;;;;;;;6.57;3.60;;;11.00;99.90;;;;;;5048001;28;20212;-77
2022/12/30 07:54:44;;;;;;;3.53;3.23;;;11.00;99.90;;;;;;5049413;28;20278;-77
2022/12/30 07:57:10;;;;;;;4.80;3.43;;;11.10;99.90;;;;;;5072482;28;20211;-77
2022/12/30 07:59:36;;;;;;;3.43;3.10;;;11.00;99.90;;;;;;5067142;28;20244;-77
2022/12/30 08:02:03;;;;;;;4.10;3.30;;;11.10;99.90;;;;;;5065753;28;20194;-78
2022/12/30 08:04:30;;;;;;;3.43;3.10;;;11.10;99.90;;;;;;5059712;28;20249;-77
2022/12/30 08:06:56;;;;;;;3.73;3.30;;;11.10;99.90;;;;;;5067847;28;20612;-77
2022/12/30 08:09:22;;;;;;;5.00;3.80;;;11.20;99.90;;;;;;5068628;28;20186;-79
2022/12/30 08:11:49;;;;;;;4.23;3.53;;;11.20;99.90;;;;;;5068095;28;20255;-79
2022/12/30 08:14:15;;;;;;;5.43;3.60;;;11.20;99.90;;;;;;5073278;28;20186;-79
2022/12/30 08:16:42;;;;;;;5.27;4.13;;;11.20;99.90;;;;;;5064570;28;20298;-78
2022/12/30 08:19:09;;;;;;;7.00;4.73;;;11.30;99.90;;;;;;5056157;28;20646;-79
2022/12/30 08:21:35;;;;;;;9.07;4.77;;;11.40;99.90;;;;;;5050212;28;20278;-79
2022/12/30 08:24:02;;;;;;;8.60;5.23;;;11.50;99.90;;;;;;5052178;28;20310;-79
2022/12/30 08:26:28;;;;;;;6.60;4.40;;;11.50;99.90;;;;;;5084131;28;20248;-79
2022/12/30 08:28:55;;;;;;;11.00;4.27;;;11.60;99.90;;;;;;5068614;28;20680;-79
2022/12/30 08:31:26;;;;;;;9.30;4.30;;;11.70;99.90;;;;;;5051311;28;20176;-79
2022/12/30 08:33:54;;;;;;;6.70;4.87;;;11.80;99.90;;;;;;5049856;28;20248;-80
2022/12/30 08:36:27;;;;;;;12.63;4.67;;;11.80;99.90;;;;;;5078973;28;20209;-79
2022/12/30 08:39:00;;;;;;;8.00;5.67;;;11.80;99.90;;;;;;5072334;28;20187;-80
2022/12/30 08:41:40;;;;;;;8.97;5.47;;;11.90;99.90;;;;;;5059842;28;20260;-79
2022/12/30 08:44:07;;;;;;;6.03;4.80;;;12.00;99.90;;;;;;5076674;28;20209;-79
2022/12/30 08:46:36;;;;;;;9.87;6.17;;;12.00;99.90;;;;;;5068494;28;20192;-77
2022/12/30 08:49:05;;;;;;;11.17;6.60;;;12.00;99.90;;;;;;5088644;28;20197;-78
2022/12/30 08:51:32;;;;;;;7.50;4.87;;;12.00;99.90;;;;;;5048105;28;20190;-78
2022/12/30 08:53:59;;;;;;;9.07;6.20;;;12.10;99.90;;;;;;5050653;28;20281;-77
2022/12/30 08:56:32;;;;;;;15.20;9.03;;;12.10;99.90;;;;;;5070162;28;20562;-78
2022/12/30 08:59:00;;;;;;;9.37;5.00;;;12.20;99.90;;;;;;5073941;28;20183;-77
2022/12/30 09:01:33;;;;;;;7.93;4.73;;;12.30;99.90;;;;;;5054008;28;20684;-78
2022/12/30 09:04:03;;;;;;;8.20;5.00;;;12.40;99.90;;;;;;5077967;28;20743;-78
2022/12/30 09:06:30;;;;;;;6.93;4.80;;;12.40;99.90;;;;;;5056254;28;20679;-77
2022/12/30 09:08:59;;;;;;;5.80;4.30;;;12.50;99.90;;;;;;5069420;28;20209;-78
2022/12/30 09:11:30;;;;;;;12.50;4.43;;;12.50;99.90;;;;;;5058158;28;20187;-78
2022/12/30 09:13:59;;;;;;;7.33;5.40;;;12.50;99.90;;;;;;5044267;28;20192;-78
2022/12/30 09:16:27;;;;;;;9.20;4.70;;;12.60;99.90;;;;;;5070709;28;20207;-77
2022/12/30 09:18:53;;;;;;;6.57;4.67;;;12.60;99.90;;;;;;5058911;28;20309;-77
2022/12/30 09:21:20;;;;;;;8.93;5.50;;;12.60;99.90;;;;;;5063429;28;20183;-78
2022/12/30 09:23:46;;;;;;;7.00;5.20;;;12.70;99.90;;;;;;5059835;28;20229;-78
2022/12/30 09:26:20;;;;;;;11.07;6.87;;;12.70;99.90;;;;;;5082342;28;20247;-78
2022/12/30 09:28:47;;;;;;;16.87;8.73;;;12.90;99.90;;;;;;5047911;28;20665;-78
2022/12/30 09:31:14;;;;;;;9.90;6.47;;;13.00;99.90;;;;;;5082223;28;20775;-78
2022/12/30 09:33:41;;;;;;;9.10;6.60;;;13.00;99.90;;;;;;5072021;28;20199;-77
2022/12/30 09:36:08;;;;;;;9.83;6.67;;;13.10;99.90;;;;;;5061988;28;20532;-78
2022/12/30 09:38:36;;;;;;;12.33;7.43;;;13.20;99.90;;;;;;5065757;28;20191;-83
2022/12/30 09:45:03;;;;;;;6.67;5.67;;;13.30;99.90;;;;;;5075813;28;20190;-84
2022/12/30 09:47:40;;;;;;;8.07;5.43;;;13.30;99.90;;;;;;5053043;28;20186;-83
2022/12/30 09:50:49;;;;;;;8.63;5.30;;;13.40;99.90;;;;;;5054581;28;20190;-84
2022/12/30 09:53:41;;;;;;;9.30;4.93;;;13.40;99.90;;;;;;5051609;28;20198;-83
2022/12/30 09:56:23;;;;;;;7.33;4.73;;;13.50;99.90;;;;;;5046033;28;20359;-83
2022/12/30 09:58:52;;;;;;;6.17;4.67;;;13.70;99.90;;;;;;5047507;28;20187;-83
2022/12/30 10:01:42;;;;;;;5.33;3.93;;;13.80;99.90;;;;;;5071629;28;20183;-82
2022/12/30 10:04:17;;;;;;;7.43;5.73;;;13.70;99.90;;;;;;5065820;28;20695;-76
2022/12/30 10:07:16;;;;;;;5.43;4.10;;;13.80;99.90;;;;;;5070096;28;20198;-75
2022/12/30 10:10:06;;;;;;;5.60;4.00;;;13.80;99.90;;;;;;5055598;28;20718;-75
2022/12/30 10:12:59;;;;;;;6.27;4.20;;;14.00;99.90;;;;;;5057629;28;20796;-76
2022/12/30 10:15:29;;;;;;;5.50;4.70;;;14.10;99.90;;;;;;5072627;28;20198;-75
2022/12/30 10:18:39;;;;;;;4.67;4.00;;;14.20;99.90;;;;;;5066963;28;20588;-75
2022/12/30 10:21:55;;;;;;;6.87;4.37;;;14.20;99.90;;;;;;5060205;28;20182;-76
2022/12/30 10:25:08;;;;;;;5.30;4.40;;;14.20;99.90;;;;;;5062313;28;20260;-76
2022/12/30 10:27:53;;;;;;;5.03;4.00;;;14.20;99.90;;;;;;5056657;28;20199;-76
2022/12/30 10:30:33;;;;;;;5.77;4.13;;;14.30;99.90;;;;;;5059494;28;20186;-76
2022/12/30 10:33:16;;;;;;;6.20;4.50;;;14.40;99.90;;;;;;5082156;28;20196;-76
2022/12/30 10:35:44;;;;;;;5.93;4.50;;;14.30;99.90;;;;;;5082271;28;20215;-76
2022/12/30 10:38:15;;;;;;;4.93;4.40;;;14.20;99.90;;;;;;5074640;28;20213;-76
2022/12/30 10:41:17;;;;;;;6.23;4.53;;;14.10;99.90;;;;;;5068146;28;20182;-76
2022/12/30 10:44:18;;;;;;;8.10;4.57;;;14.10;99.90;;;;;;5078618;28;20205;-76
2022/12/30 10:47:03;;;;;;;5.00;4.13;;;14.00;99.90;;;;;;5074236;28;20217;-76
2022/12/30 10:49:55;;;;;;;7.40;4.33;;;14.10;99.90;;;;;;5061802;28;20229;-76
2022/12/30 10:52:22;;;;;;;6.67;4.53;;;14.00;99.90;;;;;;5057289;28;20317;-76
2022/12/30 10:54:49;;;;;;;5.97;3.93;;;14.00;99.90;;;;;;5065183;28;20205;-76
2022/12/30 10:57:26;;;;;;;5.73;4.60;;;13.90;99.90;;;;;;5077613;28;20260;-75
2022/12/30 10:59:57;;;;;;;8.13;4.37;;;13.80;99.90;;;;;;5089613;28;20187;-76
2022/12/30 11:02:30;;;;;;;5.80;4.00;;;13.80;99.90;;;;;;5070243;28;20539;-76
2022/12/30 11:04:57;;;;;;;5.40;4.33;;;13.70;99.90;;;;;;5052567;28;20209;-76
2022/12/30 11:07:23;;;;;;;4.30;3.80;;;13.70;99.90;;;;;;5066230;28;20579;-76
2022/12/30 11:09:50;;;;;;;6.17;4.23;;;13.60;99.90;;;;;;5083745;28;20194;-76
2022/12/30 11:15:22;;;;;;;5.80;4.20;;;13.60;99.90;;;;;;5068460;28;20187;-76
2022/12/30 11:17:57;;;;;;;5.47;4.13;;;13.50;99.90;;;;;;5062603;28;20206;-76
2022/12/30 11:20:36;;;;;;;5.57;4.30;;;13.50;99.90;;;;;;5055887;28;20711;-77
2022/12/30 11:23:25;;;;;;;5.30;4.20;;;13.70;99.90;;;;;;5079893;28;20293;-77
2022/12/30 11:25:53;;;;;;;4.83;3.90;;;13.80;99.90;;;;;;5070518;28;20605;-77
2022/12/30 11:28:53;;;;;;;5.97;4.47;;;14.00;99.90;;;;;;5091693;28;20683;-78
2022/12/30 11:31:21;;;;;;;5.80;3.53;;;14.00;99.90;;;;;;5093379;28;20328;-79
2022/12/30 11:33:55;;;;;;;4.33;3.47;;;14.20;99.90;;;;;;5050992;28;20199;-78
2022/12/30 11:36:41;;;;;;;4.70;3.70;;;14.40;99.90;;;;;;5079656;28;20210;-79
2022/12/30 11:39:08;;;;;;;5.93;3.40;;;14.40;99.90;;;;;;5053451;28;20574;-77
2022/12/30 11:41:56;;;;;;;4.13;2.80;;;14.60;99.90;;;;;;5054756;28;20524;-78
2022/12/30 11:44:32;;;;;;;4.43;3.00;;;14.70;99.90;;;;;;5070657;28;20178;-78
2022/12/30 11:47:05;;;;;;;4.03;2.90;;;14.80;99.90;;;;;;5070292;28;20198;-78
2022/12/30 11:49:53;;;;;;;3.53;3.03;;;14.90;99.90;;;;;;5058128;28;20189;-78
2022/12/30 11:52:26;;;;;;;3.30;2.30;;;14.90;99.90;;;;;;5037197;28;20191;-78
2022/12/30 11:54:59;;;;;;;4.10;3.10;;;15.00;99.90;;;;;;5053964;28;20266;-78
2022/12/30 11:57:37;;;;;;;7.23;3.30;;;15.00;99.90;;;;;;5067735;28;20710;-78
2022/12/30 12:00:29;;;;;;;4.53;3.07;;;15.00;99.90;;;;;;5067393;28;20183;-79
2022/12/30 12:03:14;;;;;;;4.03;3.40;;;15.20;99.90;;;;;;5065583;28;20691;-78
2022/12/30 12:05:44;;;;;;;4.90;3.30;;;15.20;99.90;;;;;;5071780;28;20187;-78
2022/12/30 12:08:31;;;;;;;4.00;3.20;;;15.20;99.90;;;;;;5067029;28;20670;-78
2022/12/30 12:11:10;;;;;;;4.77;3.20;;;15.30;99.90;;;;;;5058609;28;20191;-78
2022/12/30 12:14:21;;;;;;;6.30;3.20;;;15.30;99.90;;;;;;5071068;28;20210;-78
2022/12/30 12:17:10;;;;;;;5.27;3.70;;;15.40;99.90;;;;;;5093525;28;20210;-78
2022/12/30 12:19:46;;;;;;;7.70;4.80;;;15.40;99.90;;;;;;5069750;28;20187;-77
2022/12/30 12:22:30;;;;;;;9.03;4.60;;;15.40;99.90;;;;;;5082036;28;20266;-78
2022/12/30 12:25:33;;;;;;;4.80;3.50;;;15.50;99.90;;;;;;5095337;28;20576;-77
2022/12/30 12:28:00;;;;;;;5.60;3.00;;;15.50;99.90;;;;;;5073464;28;20191;-78
2022/12/30 12:30:54;;;;;;;5.33;3.07;;;15.50;99.90;;;;;;5054010;28;20631;-77
2022/12/30 12:33:47;;;;;;;4.40;3.40;;;15.60;99.90;;;;;;5076900;28;20190;-76
2022/12/30 12:36:31;;;;;;;5.53;3.70;;;15.60;99.90;;;;;;5075691;28;20202;-77
2022/12/30 12:39:11;;;;;;;6.93;3.93;;;15.70;99.90;;;;;;5084139;28;20630;-77
2022/12/30 12:42:03;;;;;;;7.40;4.10;;;15.70;99.90;;;;;;5058263;28;20811;-77
2022/12/30 12:44:54;;;;;;;11.43;4.50;;;15.70;99.90;;;;;;5051141;28;20187;-76
2022/12/30 12:48:04;;;;;;;6.03;3.97;;;15.80;99.90;;;;;;5063393;28;20182;-76
2022/12/30 12:51:15;;;;;;;9.23;4.27;;;15.80;99.90;;;;;;5065562;28;20556;-77
2022/12/30 12:54:17;;;;;;;4.57;3.63;;;15.80;99.90;;;;;;5067902;28;20187;-77
2022/12/30 12:57:21;;;;;;;5.97;3.97;;;15.80;99.90;;;;;;5073628;28;20213;-76
2022/12/30 13:00:14;;;;;;;5.17;3.80;;;15.80;99.90;;;;;;5076610;28;20190;-76
2022/12/30 13:03:17;;;;;;;7.60;4.47;;;15.80;99.90;;;;;;5067661;28;20213;-77
2022/12/30 13:06:12;;;;;;;5.60;4.00;;;15.70;99.90;;;;;;5058229;28;20187;-76
2022/12/30 13:09:16;;;;;;;8.00;3.80;;;15.60;99.90;;;;;;5068140;28;20195;-76
2022/12/30 13:12:10;;;;;;;6.20;3.67;;;15.70;99.90;;;;;;5075785;28;20194;-76
2022/12/30 13:15:04;;;;;;;5.50;4.10;;;15.60;99.90;;;;;;5082050;28;20189;-76
2022/12/30 13:17:44;;;;;;;8.77;4.80;;;15.60;99.90;;;;;;5069390;28;20212;-76
2022/12/30 13:20:27;;;;;;;7.40;4.67;;;15.70;99.90;;;;;;5068592;28;20217;-76
2022/12/30 13:22:56;;;;;;;6.93;5.03;;;15.60;99.90;;;;;;5087880;28;20191;-76
2022/12/30 13:25:44;;;;;;;9.60;5.10;;;15.60;99.90;;;;;;5063256;28;20218;-76
2022/12/30 13:28:25;;;;;;;10.60;5.17;;;15.60;99.90;;;;;;5102589;27;20313;-76
2022/12/30 13:31:19;;;;;;;7.23;5.03;;;15.50;99.90;;;;;;5092019;28;20505;-77
2022/12/30 13:34:33;;;;;;;10.67;5.00;;;15.50;99.90;;;;;;5092153;28;20190;-77
2022/12/30 13:37:39;;;;;;;10.97;4.83;;;15.40;99.90;;;;;;5072263;28;20225;-76
2022/12/30 13:40:16;;;;;;;8.67;4.97;;;15.30;99.90;;;;;;5066091;28;20225;-77
2022/12/30 13:43:43;;;;;;;9.50;5.43;;;15.20;99.90;;;;;;5060767;28;20642;-76
2022/12/30 13:46:26;;;;;;;8.90;4.90;;;15.10;99.90;;;;;;5070802;28;20184;-76
2022/12/30 13:49:21;;;;;;;8.83;4.33;;;15.00;99.90;;;;;;5080204;28;20223;-76
2022/12/30 13:52:03;;;;;;;8.73;4.73;;;15.00;99.90;;;;;;5092600;28;20235;-76
2022/12/30 13:54:33;;;;;;;6.53;4.80;;;14.90;99.90;;;;;;5070541;28;20190;-76
2022/12/30 13:57:03;;;;;;;14.90;5.40;;;14.90;99.90;;;;;;5070556;28;20214;-76
2022/12/30 13:59:37;;;;;;;8.87;4.97;;;14.80;99.90;;;;;;5083669;28;20586;-76
2022/12/30 14:02:18;;;;;;;8.50;4.87;;;14.70;99.90;;;;;;5054435;28;20183;-77
2022/12/30 14:04:48;;;;;;;6.90;4.90;;;14.70;99.90;;;;;;5046866;28;20191;-75
2022/12/30 14:07:39;;;;;;;9.10;5.13;;;14.60;99.90;;;;;;5080840;28;20685;-76
2022/12/30 14:10:18;;;;;;;6.97;5.03;;;14.60;99.90;;;;;;5068161;28;20233;-76
2022/12/30 14:12:47;;;;;;;8.17;4.90;;;14.40;99.90;;;;;;5075265;28;20186;-76
2022/12/30 14:15:32;;;;;;;8.13;4.80;;;14.40;99.90;;;;;;5044838;28;20207;-76
2022/12/30 14:18:16;;;;;;;7.23;4.80;;;14.30;99.90;;;;;;5070500;28;20221;-76
2022/12/30 14:21:01;;;;;;;5.97;4.67;;;14.30;99.90;;;;;;5076742;28;20540;-76
2022/12/30 14:23:37;;;;;;;8.43;4.80;;;14.20;99.90;;;;;;5073139;28;20259;-76